Time;durP1;ratioP1;P1;durP2;ratioP2;P2;SDS_P1;SDS_P2;PMS_P1;PMS_P2;Temp;Humidity;BMP_temperature;BMP_pressure;BME280_temperature;BME280_humidity;BME280_pressure;Samples;Min_cycle;Max_cycle;Signal;HPM_P1;HPM_P2
2021/10/29 00:00:58;;;;;;;29.82;14.50;;;23.10;48.20;;;;;;1882627;76;21064;-31
2021/10/29 00:03:26;;;;;;;32.08;14.70;;;23.20;48.30;;;;;;1882713;76;21063;-31
2021/10/29 00:05:53;;;;;;;29.30;14.85;;;23.10;48.30;;;;;;1882817;76;21068;-32
2021/10/29 00:08:21;;;;;;;30.32;14.98;;;23.10;48.40;;;;;;1885738;76;21071;-32
2021/10/29 00:10:48;;;;;;;30.55;15.38;;;23.10;48.30;;;;;;1892017;76;21464;-31
2021/10/29 00:13:16;;;;;;;35.80;17.05;;;23.10;48.30;;;;;;1891978;76;21532;-32
2021/10/29 00:15:43;;;;;;;28.75;15.70;;;23.10;48.40;;;;;;1892111;76;21083;-32
2021/10/29 00:18:11;;;;;;;29.63;14.98;;;23.10;48.40;;;;;;1892318;76;21050;-32
2021/10/29 00:20:38;;;;;;;34.95;16.10;;;23.10;48.40;;;;;;1892038;76;21040;-32
2021/10/29 00:23:06;;;;;;;30.88;17.40;;;23.10;48.40;;;;;;1892051;76;21048;-32
2021/10/29 00:25:33;;;;;;;33.05;15.32;;;23.10;48.40;;;;;;1892001;76;21052;-31
2021/10/29 00:28:01;;;;;;;36.55;16.62;;;23.10;48.30;;;;;;1892116;76;21125;-31
2021/10/29 00:30:28;;;;;;;33.20;16.27;;;23.10;48.40;;;;;;1892104;76;21059;-32
2021/10/29 00:32:56;;;;;;;35.70;15.63;;;23.10;48.30;;;;;;1892172;76;21059;-32
2021/10/29 00:35:24;;;;;;;35.10;17.00;;;23.10;48.40;;;;;;1892053;76;21107;-31
2021/10/29 00:37:51;;;;;;;39.63;16.67;;;23.10;48.40;;;;;;1892341;76;21630;-31
2021/10/29 00:40:19;;;;;;;34.30;16.65;;;23.10;48.50;;;;;;1891979;76;21052;-31
2021/10/29 00:42:47;;;;;;;36.05;17.10;;;23.10;48.50;;;;;;1892106;76;21075;-31
2021/10/29 00:45:14;;;;;;;34.33;16.45;;;23.10;48.50;;;;;;1892046;76;21118;-31
2021/10/29 00:47:42;;;;;;;40.43;18.10;;;23.10;48.50;;;;;;1892110;76;21487;-31
2021/10/29 00:50:10;;;;;;;32.65;16.27;;;23.10;48.00;;;;;;1892024;76;21036;-31
2021/10/29 00:52:37;;;;;;;32.28;17.30;;;23.10;48.40;;;;;;1892002;76;21118;-31
2021/10/29 00:55:06;;;;;;;31.57;16.30;;;23.10;48.30;;;;;;1892223;76;21039;-31
2021/10/29 00:57:34;;;;;;;39.23;17.80;;;23.10;48.40;;;;;;1892018;76;21149;-31
2021/10/29 01:00:01;;;;;;;33.88;16.90;;;23.10;48.50;;;;;;1860428;76;21059;-31
2021/10/29 01:02:30;;;;;;;33.83;17.20;;;23.10;49.10;;;;;;1891972;76;21071;-31
2021/10/29 01:04:58;;;;;;;39.48;18.98;;;23.10;48.50;;;;;;1892121;76;21067;-32
2021/10/29 01:07:25;;;;;;;31.68;15.80;;;23.10;48.60;;;;;;1891989;76;21056;-32
2021/10/29 01:09:54;;;;;;;39.70;18.20;;;23.10;48.70;;;;;;1885203;76;21692;-31
2021/10/29 01:12:21;;;;;;;36.50;17.40;;;23.10;48.80;;;;;;1882708;76;21091;-32
2021/10/29 01:14:57;;;;;;;37.80;19.17;;;23.10;48.80;;;;;;1882723;76;21594;-32
2021/10/29 01:17:25;;;;;;;34.15;17.70;;;23.10;48.80;;;;;;1882710;76;21028;-31
2021/10/29 01:19:54;;;;;;;30.17;15.95;;;23.10;48.80;;;;;;1882727;76;21517;-31
2021/10/29 01:22:22;;;;;;;37.70;17.82;;;23.10;48.80;;;;;;1882745;76;21118;-32
2021/10/29 01:24:52;;;;;;;34.88;17.20;;;23.10;48.80;;;;;;1882904;76;21069;-32
2021/10/29 01:27:19;;;;;;;32.05;17.40;;;23.10;48.90;;;;;;1882794;76;21470;-32
2021/10/29 01:29:47;;;;;;;35.55;17.37;;;23.10;48.80;;;;;;1882789;76;21528;-32
2021/10/29 01:32:15;;;;;;;39.53;17.45;;;23.00;49.30;;;;;;1882756;76;21493;-32
2021/10/29 01:34:42;;;;;;;31.90;16.75;;;23.00;48.80;;;;;;1882829;76;21477;-32
2021/10/29 01:37:11;;;;;;;38.70;17.55;;;23.00;48.80;;;;;;1882825;76;21500;-32
2021/10/29 01:39:39;;;;;;;34.23;16.32;;;23.00;48.80;;;;;;1882743;76;21036;-32
2021/10/29 01:42:07;;;;;;;35.83;17.37;;;23.10;48.90;;;;;;1882887;76;21528;-31
2021/10/29 01:44:35;;;;;;;38.80;17.55;;;23.00;48.80;;;;;;1882764;76;21044;-32
2021/10/29 01:47:02;;;;;;;32.03;18.20;;;23.00;48.80;;;;;;1882858;76;21061;-32
2021/10/29 01:49:30;;;;;;;32.15;16.00;;;23.00;48.80;;;;;;1882725;76;21051;-31
2021/10/29 01:51:58;;;;;;;38.85;17.70;;;23.00;48.80;;;;;;1882946;76;21067;-32
2021/10/29 01:54:25;;;;;;;37.78;17.82;;;23.00;48.80;;;;;;1882721;76;21528;-32
2021/10/29 01:56:53;;;;;;;38.10;18.62;;;23.00;48.80;;;;;;1882811;76;21226;-31
2021/10/29 01:59:20;;;;;;;39.03;18.27;;;23.00;48.80;;;;;;1882790;76;21102;-31
2021/10/29 02:01:48;;;;;;;40.28;20.02;;;23.00;48.80;;;;;;1882629;76;21067;-31
2021/10/29 02:04:16;;;;;;;39.05;17.73;;;23.00;48.70;;;;;;1882740;76;21579;-32
2021/10/29 02:06:44;;;;;;;36.38;18.80;;;23.00;48.80;;;;;;1882810;76;21611;-32
2021/10/29 02:09:11;;;;;;;41.40;19.87;;;23.00;48.80;;;;;;1885062;76;21075;-32
2021/10/29 02:11:40;;;;;;;38.83;18.37;;;23.00;48.90;;;;;;1891916;76;21087;-32
2021/10/29 02:14:07;;;;;;;36.85;17.75;;;23.00;48.90;;;;;;1891988;76;21513;-32
2021/10/29 02:16:35;;;;;;;38.25;19.25;;;23.00;48.90;;;;;;1891966;76;21047;-32
2021/10/29 02:19:03;;;;;;;38.60;18.92;;;23.00;49.10;;;;;;1892051;76;21504;-32
2021/10/29 02:21:30;;;;;;;37.38;20.05;;;23.00;49.00;;;;;;1892019;76;21118;-32
2021/10/29 02:23:58;;;;;;;45.90;20.20;;;23.00;49.10;;;;;;1892196;76;21113;-31
2021/10/29 02:26:28;;;;;;;36.75;17.57;;;23.00;49.00;;;;;;1892156;76;21036;-32
2021/10/29 02:28:57;;;;;;;44.60;20.27;;;23.00;49.00;;;;;;1891866;76;21524;-32
2021/10/29 02:31:26;;;;;;;39.27;19.45;;;23.00;49.00;;;;;;1892053;76;21520;-32
2021/10/29 02:33:54;;;;;;;37.15;19.23;;;22.90;48.90;;;;;;1892032;76;21083;-32
2021/10/29 02:36:22;;;;;;;40.95;19.30;;;22.90;48.80;;;;;;1892138;76;21488;-32
2021/10/29 02:38:51;;;;;;;42.33;19.67;;;23.00;48.80;;;;;;1892064;76;21512;-32
2021/10/29 02:41:19;;;;;;;37.75;18.02;;;23.00;48.80;;;;;;1891960;76;21071;-31
2021/10/29 02:43:46;;;;;;;37.80;18.42;;;22.90;48.80;;;;;;1892125;76;21539;-32
2021/10/29 02:46:14;;;;;;;37.45;18.05;;;23.00;48.70;;;;;;1891995;76;21540;-32
2021/10/29 02:48:42;;;;;;;37.23;18.27;;;22.90;48.70;;;;;;1891928;76;21122;-31
2021/10/29 02:51:10;;;;;;;34.03;16.25;;;22.90;48.60;;;;;;1891932;76;21518;-31
2021/10/29 02:53:38;;;;;;;35.10;17.75;;;22.90;48.60;;;;;;1891933;76;21523;-31
2021/10/29 02:56:07;;;;;;;35.35;18.25;;;22.90;48.60;;;;;;1891908;76;21073;-31
2021/10/29 02:58:35;;;;;;;38.92;19.12;;;22.90;48.50;;;;;;1892116;76;21559;-31
2021/10/29 03:01:03;;;;;;;37.33;18.17;;;22.90;48.50;;;;;;1891923;76;21129;-31
2021/10/29 03:03:30;;;;;;;31.50;17.32;;;22.90;48.50;;;;;;1891956;76;21064;-32
2021/10/29 03:05:58;;;;;;;35.88;18.77;;;22.90;48.40;;;;;;1892031;76;21525;-31
2021/10/29 03:08:26;;;;;;;33.73;18.15;;;22.90;48.40;;;;;;1891905;76;21071;-31
2021/10/29 03:10:54;;;;;;;33.92;17.17;;;22.90;48.40;;;;;;1891827;76;21200;-31
2021/10/29 03:13:23;;;;;;;30.90;16.48;;;22.90;48.40;;;;;;1891912;76;21080;-32
2021/10/29 03:15:51;;;;;;;32.33;16.95;;;22.90;48.20;;;;;;1892108;76;21059;-31
2021/10/29 03:18:19;;;;;;;35.55;17.77;;;22.90;48.20;;;;;;1892010;76;21514;-31
2021/10/29 03:20:46;;;;;;;29.92;16.37;;;22.90;48.10;;;;;;1892042;76;21496;-32
2021/10/29 03:23:15;;;;;;;30.50;16.17;;;22.90;48.10;;;;;;1891913;76;21613;-31
2021/10/29 03:25:43;;;;;;;34.95;16.40;;;22.90;48.10;;;;;;1892129;76;21125;-31
2021/10/29 03:28:13;;;;;;;30.35;16.17;;;22.80;48.10;;;;;;1892002;76;21117;-31
2021/10/29 03:30:42;;;;;;;34.48;16.20;;;22.80;48.00;;;;;;1891902;76;21208;-32
2021/10/29 03:33:10;;;;;;;29.48;15.85;;;22.80;48.00;;;;;;1892087;76;21056;-31
2021/10/29 03:35:38;;;;;;;28.38;14.95;;;22.80;47.90;;;;;;1891959;76;21493;-31
2021/10/29 03:40:48;;;;;;;30.30;15.32;;;22.90;47.90;;;;;;1891940;76;21055;-31
2021/10/29 03:45:56;;;;;;;29.55;16.02;;;22.70;48.00;;;;;;1891969;76;20398;-31
2021/10/29 03:48:32;;;;;;;27.45;14.98;;;22.50;48.20;;;;;;1891468;76;21564;-31
2021/10/29 03:51:09;;;;;;;29.35;14.78;;;22.60;47.90;;;;;;1889898;76;21102;-32
2021/10/29 03:53:43;;;;;;;27.35;15.40;;;22.70;47.80;;;;;;1890888;76;21064;-31
2021/10/29 03:56:05;;;;;;;26.93;14.55;;;22.70;47.70;;;;;;1889496;76;21135;-32
2021/10/29 03:58:32;;;;;;;26.07;13.72;;;22.70;47.70;;;;;;1892069;76;21067;-31
2021/10/29 04:01:00;;;;;;;30.70;15.08;;;22.70;47.60;;;;;;1892104;76;21540;-32
2021/10/29 04:03:27;;;;;;;26.70;13.75;;;22.70;47.50;;;;;;1892159;76;21465;-31
2021/10/29 04:05:55;;;;;;;24.32;14.95;;;22.80;47.60;;;;;;1892021;76;21130;-31
2021/10/29 04:08:23;;;;;;;24.25;13.58;;;22.80;47.40;;;;;;1892068;76;21516;-32
2021/10/29 04:10:50;;;;;;;25.95;14.47;;;22.80;47.80;;;;;;1884115;76;21591;-32
2021/10/29 04:13:18;;;;;;;25.27;13.68;;;22.80;47.20;;;;;;1877519;76;21087;-32
2021/10/29 04:15:46;;;;;;;26.00;13.40;;;22.80;47.20;;;;;;1877566;76;21537;-32
2021/10/29 04:18:13;;;;;;;25.70;13.90;;;22.80;47.20;;;;;;1877593;76;21568;-31
2021/10/29 04:20:41;;;;;;;21.73;12.28;;;22.80;47.10;;;;;;1877654;76;21513;-31
2021/10/29 04:23:08;;;;;;;26.23;13.22;;;22.80;47.60;;;;;;1877546;76;21057;-31
2021/10/29 04:26:04;;;;;;;21.23;12.07;;;22.80;47.00;;;;;;1877499;76;21122;-31
2021/10/29 04:28:33;;;;;;;21.95;11.78;;;22.80;46.90;;;;;;1877460;76;21540;-31
2021/10/29 04:31:04;;;;;;;19.10;12.78;;;22.70;46.90;;;;;;1877637;76;21067;-31
2021/10/29 04:33:29;;;;;;;19.32;11.25;;;22.70;46.80;;;;;;1877011;76;21072;-32
2021/10/29 04:35:57;;;;;;;22.30;11.95;;;22.70;46.80;;;;;;1877582;76;21102;-31
2021/10/29 04:38:25;;;;;;;18.60;10.82;;;22.70;46.70;;;;;;1877557;76;21521;-31
2021/10/29 04:40:52;;;;;;;19.98;12.43;;;22.70;46.60;;;;;;1848843;76;21061;-31
2021/10/29 04:43:20;;;;;;;18.57;11.68;;;22.80;46.60;;;;;;1877557;76;21535;-31
2021/10/29 04:45:47;;;;;;;18.77;11.33;;;22.70;46.50;;;;;;1877612;76;21517;-32
2021/10/29 04:48:14;;;;;;;19.40;10.88;;;22.70;46.50;;;;;;1877511;76;21036;-32
2021/10/29 04:50:42;;;;;;;19.60;11.55;;;22.70;46.40;;;;;;1877547;76;21048;-31
2021/10/29 04:53:11;;;;;;;18.92;10.90;;;22.70;46.40;;;;;;1877438;76;21594;-31
2021/10/29 04:55:39;;;;;;;19.42;10.93;;;22.70;46.30;;;;;;1877725;76;21064;-32
2021/10/29 04:58:07;;;;;;;18.62;10.85;;;22.70;46.20;;;;;;1877559;76;21032;-31
2021/10/29 05:00:35;;;;;;;18.05;10.35;;;22.70;46.20;;;;;;1877555;76;21063;-31
2021/10/29 05:03:06;;;;;;;19.10;10.35;;;22.70;46.20;;;;;;1877562;76;21068;-31
2021/10/29 05:05:32;;;;;;;15.53;9.40;;;22.70;46.20;;;;;;1877234;76;21075;-31
2021/10/29 05:08:00;;;;;;;15.68;10.38;;;22.70;46.10;;;;;;1877440;76;21551;-31
2021/10/29 05:10:28;;;;;;;15.23;9.88;;;22.70;46.20;;;;;;1877451;76;21092;-31
2021/10/29 05:12:55;;;;;;;17.17;9.48;;;22.70;46.10;;;;;;1877475;76;21103;-32
2021/10/29 05:15:22;;;;;;;17.67;9.65;;;22.70;46.10;;;;;;1877587;76;21462;-31
2021/10/29 05:17:50;;;;;;;15.38;10.00;;;22.60;46.00;;;;;;1877619;76;21060;-31
2021/10/29 05:20:18;;;;;;;15.88;9.25;;;22.70;46.00;;;;;;1877488;76;21521;-31
2021/10/29 05:22:46;;;;;;;16.42;10.08;;;22.70;46.00;;;;;;1877490;76;21453;-31
2021/10/29 05:25:14;;;;;;;15.88;9.35;;;22.60;45.90;;;;;;1877613;76;21599;-31
2021/10/29 05:27:41;;;;;;;15.05;9.05;;;22.70;45.90;;;;;;1877515;76;21533;-31
2021/10/29 05:30:10;;;;;;;14.87;9.68;;;22.70;45.90;;;;;;1877566;76;21052;-31
2021/10/29 05:32:38;;;;;;;14.45;8.45;;;22.70;45.90;;;;;;1877492;76;21064;-31
2021/10/29 05:35:06;;;;;;;13.28;8.83;;;22.60;45.80;;;;;;1877617;76;21611;-31
2021/10/29 05:37:34;;;;;;;14.07;8.33;;;22.60;46.20;;;;;;1877574;76;21529;-31
2021/10/29 05:40:03;;;;;;;14.45;8.43;;;22.60;45.60;;;;;;1877609;76;21032;-31
2021/10/29 05:42:33;;;;;;;14.33;9.48;;;22.60;46.10;;;;;;1877508;76;21509;-32
2021/10/29 05:45:00;;;;;;;15.75;8.55;;;22.60;45.60;;;;;;1877467;76;21044;-31
2021/10/29 05:47:28;;;;;;;12.95;8.98;;;22.60;45.60;;;;;;1877426;76;21114;-31
2021/10/29 05:49:56;;;;;;;13.62;8.15;;;22.60;45.60;;;;;;1877550;76;21041;-32
2021/10/29 05:52:25;;;;;;;14.20;8.48;;;22.60;45.60;;;;;;1877442;76;21600;-31
2021/10/29 05:57:25;;;;;;;11.15;7.83;;;22.60;45.50;;;;;;1877456;76;21068;-31
2021/10/29 05:59:53;;;;;;;11.22;7.40;;;22.60;45.50;;;;;;1877038;76;21081;-31
2021/10/29 06:02:21;;;;;;;11.03;7.40;;;22.60;45.50;;;;;;1877467;76;21603;-32
2021/10/29 06:04:49;;;;;;;11.78;8.40;;;22.60;45.50;;;;;;1877507;76;21521;-31
2021/10/29 06:07:17;;;;;;;10.65;6.95;;;22.50;45.40;;;;;;1877420;76;21025;-32
2021/10/29 06:09:44;;;;;;;11.60;6.85;;;22.60;45.50;;;;;;1877453;76;21161;-32
2021/10/29 06:12:12;;;;;;;11.60;7.40;;;22.60;45.60;;;;;;1877460;76;21150;-32
2021/10/29 06:14:41;;;;;;;11.12;7.50;;;22.60;45.50;;;;;;1877402;76;21072;-32
2021/10/29 06:17:17;;;;;;;12.28;7.75;;;22.60;45.40;;;;;;1877506;76;21064;-32
2021/10/29 06:19:37;;;;;;;12.33;7.40;;;22.60;45.40;;;;;;1875796;76;21071;-32
2021/10/29 06:24:41;;;;;;;11.08;7.12;;;22.60;45.30;;;;;;1877393;76;21060;-32
2021/10/29 06:28:11;;;;;;;11.33;6.87;;;22.60;45.30;;;;;;1877441;76;21478;-31
2021/10/29 06:29:40;;;;;;;9.55;6.28;;;22.60;45.40;;;;;;1872949;76;21057;-32
2021/10/29 06:32:08;;;;;;;12.03;7.03;;;22.60;45.30;;;;;;1877424;76;21067;-31
2021/10/29 06:34:37;;;;;;;10.08;6.40;;;22.60;45.30;;;;;;1877559;76;21529;-32
2021/10/29 06:37:05;;;;;;;9.40;6.12;;;22.60;45.30;;;;;;1877412;76;21564;-32
2021/10/29 06:39:33;;;;;;;10.20;6.45;;;22.60;45.30;;;;;;1877468;76;21537;-32
2021/10/29 06:42:07;;;;;;;9.78;6.37;;;22.60;45.20;;;;;;1877433;76;21521;-32
2021/10/29 06:45:01;;;;;;;10.55;6.70;;;22.60;45.00;;;;;;1876338;76;21079;-31
2021/10/29 07:01:08;;;;;;;10.35;7.17;;;22.40;43.90;;;;;;1877307;76;21501;-32
2021/10/29 07:41:59;;;;;;;10.98;6.92;;;22.30;44.40;;;;;;1877524;76;21060;-32
2021/10/29 07:44:28;;;;;;;9.28;5.80;;;22.30;44.20;;;;;;1877508;76;21122;-32
2021/10/29 07:46:56;;;;;;;10.13;6.37;;;22.40;44.10;;;;;;1877468;76;21045;-32
2021/10/29 07:49:28;;;;;;;9.88;5.62;;;22.40;44.10;;;;;;1877509;76;21064;-32
2021/10/29 07:51:56;;;;;;;;;;;22.40;44.20;;;;;;1880408;76;21559;-32
2021/10/29 07:54:24;;;;;;;13.08;6.25;;;22.20;44.40;;;;;;1877599;76;20120;-32
2021/10/29 07:56:51;;;;;;;14.87;6.40;;;22.20;44.70;;;;;;1877623;76;21568;-31
2021/10/29 07:59:22;;;;;;;16.05;6.30;;;22.30;44.50;;;;;;1877491;76;21525;-32
2021/10/29 08:01:50;;;;;;;11.68;6.22;;;22.40;44.40;;;;;;1877695;76;21599;-32
2021/10/29 08:04:21;;;;;;;19.73;7.50;;;22.40;44.40;;;;;;1877483;76;21106;-32
2021/10/29 08:06:49;;;;;;;15.80;7.80;;;22.40;44.40;;;;;;1877313;76;21063;-32
2021/10/29 08:09:16;;;;;;;14.53;7.62;;;22.40;44.30;;;;;;1877513;76;21094;-32
2021/10/29 08:11:44;;;;;;;22.00;11.00;;;22.40;44.80;;;;;;1877290;76;21173;-32
2021/10/29 08:14:12;;;;;;;15.05;8.10;;;22.40;44.30;;;;;;1877541;76;21525;-32
2021/10/29 08:16:40;;;;;;;14.28;8.20;;;22.40;44.30;;;;;;1877591;76;21570;-32
2021/10/29 08:19:08;;;;;;;16.37;9.63;;;22.40;44.30;;;;;;1877549;76;21477;-32
2021/10/29 08:21:35;;;;;;;18.20;10.80;;;22.40;44.30;;;;;;1877535;76;21517;-32
2021/10/29 08:24:03;;;;;;;20.92;11.43;;;22.40;44.30;;;;;;1877506;76;21469;-32
2021/10/29 08:26:31;;;;;;;18.75;12.30;;;22.40;44.30;;;;;;1877403;76;21490;-32
2021/10/29 08:28:59;;;;;;;20.25;13.10;;;22.40;44.30;;;;;;1877581;76;21167;-32
2021/10/29 08:31:27;;;;;;;20.55;12.10;;;22.40;44.30;;;;;;1877576;76;21478;-32
2021/10/29 08:33:55;;;;;;;15.72;10.30;;;22.40;44.30;;;;;;1877640;76;21786;-31
2021/10/29 08:36:23;;;;;;;15.80;10.82;;;22.40;44.20;;;;;;1877619;76;21212;-31
2021/10/29 08:38:51;;;;;;;17.80;11.95;;;22.40;44.30;;;;;;1877492;76;21552;-31
2021/10/29 08:41:18;;;;;;;19.92;12.33;;;22.40;44.30;;;;;;1877456;76;21572;-31
2021/10/29 08:43:46;;;;;;;17.55;11.70;;;22.40;44.30;;;;;;1877473;76;21231;-31
2021/10/29 08:46:14;;;;;;;16.12;10.60;;;22.40;44.00;;;;;;1877456;76;21060;-31
2021/10/29 08:48:42;;;;;;;16.40;10.35;;;22.40;43.90;;;;;;1877547;76;21123;-31
2021/10/29 08:51:10;;;;;;;16.52;9.70;;;22.40;44.00;;;;;;1877619;76;21075;-32
2021/10/29 08:53:38;;;;;;;15.93;9.05;;;22.40;44.10;;;;;;1877463;76;21517;-31
2021/10/29 08:56:09;;;;;;;15.35;8.30;;;22.40;44.10;;;;;;1877565;76;21578;-31
2021/10/29 08:58:56;;;;;;;13.28;7.58;;;22.40;44.20;;;;;;1877572;76;21087;-32
2021/10/29 09:01:24;;;;;;;13.93;7.53;;;22.30;44.30;;;;;;1877379;76;21064;-31
2021/10/29 09:03:59;;;;;;;12.60;7.58;;;22.30;44.50;;;;;;1877578;76;21534;-31
2021/10/29 09:06:39;;;;;;;14.00;8.53;;;22.40;44.50;;;;;;1875926;76;21545;-31
2021/10/29 09:09:26;;;;;;;13.93;7.53;;;22.40;44.50;;;;;;1846487;76;21083;-32
2021/10/29 09:31:30;;;;;;;8.60;5.53;;;22.20;44.80;;;;;;1877428;76;21079;-31
2021/10/29 09:34:01;;;;;;;7.83;4.58;;;22.20;45.10;;;;;;1877436;76;21068;-31
2021/10/29 09:36:31;;;;;;;8.77;5.03;;;22.20;45.10;;;;;;1877716;76;21126;-31
2021/10/29 09:39:05;;;;;;;8.28;5.15;;;22.20;45.10;;;;;;1875594;76;21099;-31
2021/10/29 09:41:34;;;;;;;8.40;4.62;;;22.30;45.10;;;;;;1877329;76;21567;-31
2021/10/29 09:44:16;;;;;;;7.65;5.42;;;22.30;45.10;;;;;;1877459;76;21040;-31
2021/10/29 09:46:56;;;;;;;8.33;5.00;;;22.30;45.00;;;;;;1877517;76;21544;-31
2021/10/29 09:49:27;;;;;;;7.35;4.80;;;22.30;45.00;;;;;;1876588;76;21501;-31
2021/10/29 09:54:51;;;;;;;7.33;4.85;;;22.30;45.10;;;;;;1825810;76;21037;-31
2021/10/29 09:56:57;;;;;;;7.33;4.70;;;22.30;44.90;;;;;;1868714;76;21085;-32
2021/10/29 09:59:25;;;;;;;8.55;4.78;;;22.40;44.90;;;;;;1877498;76;21118;-31
2021/10/29 10:01:53;;;;;;;7.85;4.62;;;22.40;45.50;;;;;;1877608;76;21470;-32
2021/10/29 10:04:21;;;;;;;5.45;4.22;;;22.40;45.00;;;;;;1859090;76;21513;-32
2021/10/29 10:06:49;;;;;;;6.62;4.67;;;22.40;44.90;;;;;;1839756;78;21520;-31
2021/10/29 10:09:17;;;;;;;7.47;4.40;;;22.40;44.90;;;;;;1838699;77;21221;-31
2021/10/29 10:11:46;;;;;;;6.62;4.50;;;22.50;45.00;;;;;;1836329;77;21127;-32
2021/10/29 10:14:14;;;;;;;6.25;4.30;;;22.50;44.90;;;;;;1843537;77;21603;-32
2021/10/29 10:16:42;;;;;;;6.22;4.28;;;22.50;44.90;;;;;;1815778;78;21079;-32
2021/10/29 10:19:10;;;;;;;6.10;4.30;;;22.50;45.00;;;;;;1847071;78;21138;-31
2021/10/29 10:21:40;;;;;;;6.17;4.33;;;22.50;44.90;;;;;;1847084;78;21550;-31
2021/10/29 10:24:14;;;;;;;8.78;4.55;;;22.50;44.90;;;;;;1846611;78;21052;-32
2021/10/29 10:43:07;;;;;;;7.53;4.25;;;22.50;45.20;;;;;;1846990;78;21104;-32
2021/10/29 10:48:14;;;;;;;6.03;4.05;;;22.50;45.70;;;;;;1847163;78;21498;-31
2021/10/29 10:50:47;;;;;;;7.20;4.45;;;22.50;45.30;;;;;;1847161;78;21130;-31
2021/10/29 10:53:18;;;;;;;;;;;22.50;45.20;;;;;;1849454;78;21497;-31
2021/10/29 11:04:46;;;;;;;5.62;3.58;;;22.40;45.40;;;;;;1846430;78;21076;-31
2021/10/29 11:10:04;;;;;;;4.87;3.60;;;22.40;45.50;;;;;;1847152;78;21160;-31
2021/10/29 11:12:46;;;;;;;5.58;4.10;;;22.40;45.40;;;;;;1846608;77;21096;-31
2021/10/29 11:15:24;;;;;;;5.70;4.40;;;22.50;45.50;;;;;;1861026;77;21157;-31
2021/10/29 11:17:57;;;;;;;4.70;3.42;;;22.50;45.50;;;;;;1861049;77;21541;-31
2021/10/29 11:20:49;;;;;;;5.47;4.20;;;22.50;45.30;;;;;;1861271;77;21145;-32
2021/10/29 11:23:33;;;;;;;;;;;22.60;45.30;;;;;;1863897;77;21138;-31
2021/10/29 11:26:04;;;;;;;7.83;4.28;;;22.40;45.50;;;;;;1861119;77;20114;-31
2021/10/29 11:28:41;;;;;;;5.40;3.87;;;22.30;45.60;;;;;;1861092;77;21130;-31
2021/10/29 11:31:11;;;;;;;6.40;3.87;;;22.40;45.20;;;;;;1860860;77;21145;-31
2021/10/29 11:33:50;;;;;;;8.23;4.17;;;22.50;45.10;;;;;;1861118;77;21032;-31
2021/10/29 11:36:20;;;;;;;6.62;4.03;;;22.60;45.00;;;;;;1861120;77;21129;-31
2021/10/29 11:38:49;;;;;;;5.00;3.90;;;22.50;45.00;;;;;;1861112;77;21056;-31
2021/10/29 11:41:21;;;;;;;6.70;3.75;;;22.60;45.00;;;;;;1861131;77;21500;-31
2021/10/29 11:43:50;;;;;;;5.15;3.92;;;22.60;44.90;;;;;;1861092;77;21133;-31
2021/10/29 11:46:18;;;;;;;6.53;3.95;;;22.60;44.80;;;;;;1861198;77;21505;-31
2021/10/29 11:48:54;;;;;;;5.33;3.60;;;22.70;44.90;;;;;;1861160;77;21576;-31
2021/10/29 11:51:23;;;;;;;5.70;3.67;;;22.70;44.90;;;;;;1861001;77;21086;-31
2021/10/29 11:54:44;;;;;;;5.17;4.05;;;22.70;45.00;;;;;;1861073;77;21524;-32
2021/10/29 12:01:59;;;;;;;5.90;3.77;;;22.70;44.90;;;;;;1861156;77;21103;-31
2021/10/29 12:07:18;;;;;;;5.25;3.87;;;22.70;44.90;;;;;;1763273;81;21111;-31
2021/10/29 12:09:47;;;;;;;5.83;3.70;;;22.60;44.90;;;;;;1763389;81;21581;-31
2021/10/29 12:12:18;;;;;;;4.12;3.42;;;22.70;45.00;;;;;;1803934;77;21548;-31
2021/10/29 12:14:47;;;;;;;4.43;3.30;;;22.70;44.90;;;;;;1852650;77;21146;-31
2021/10/29 12:17:23;;;;;;;5.47;3.90;;;22.70;44.90;;;;;;1847236;78;21571;-31
2021/10/29 12:19:53;;;;;;;5.25;3.47;;;22.70;44.90;;;;;;1846859;78;21172;-31
2021/10/29 12:25:07;;;;;;;6.00;4.05;;;22.70;44.90;;;;;;1847194;78;21096;-31
2021/10/29 12:27:35;;;;;;;7.53;3.80;;;22.70;44.80;;;;;;1817364;78;21133;-32
2021/10/29 12:30:10;;;;;;;5.37;3.40;;;22.70;44.70;;;;;;1816568;78;21076;-32
2021/10/29 12:33:01;;;;;;;4.90;3.45;;;22.70;44.70;;;;;;1847172;78;21130;-33
2021/10/29 12:38:19;;;;;;;4.05;3.42;;;22.70;44.90;;;;;;1847159;78;21554;-33
2021/10/29 14:28:46;;;;;;;2.30;2.10;;;20.90;45.00;;;;;;1850885;77;21116;-10
2021/10/29 14:31:16;;;;;;;2.37;2.17;;;20.90;45.30;;;;;;1849394;77;21525;-10
2021/10/29 14:33:53;;;;;;;2.30;2.05;;;20.90;45.10;;;;;;1858651;77;21170;-10
2021/10/29 14:36:14;;;;;;;2.05;1.82;;;20.90;44.90;;;;;;1860803;77;21495;-10
2021/10/29 14:38:55;;;;;;;2.10;1.90;;;20.90;44.70;;;;;;1862698;77;21631;-10
2021/10/29 14:41:38;;;;;;;;;;;21.00;44.40;;;;;;1863259;77;21074;-10
2021/10/29 14:43:53;;;;;;;2.60;2.10;;;20.90;44.60;;;;;;1856721;77;20168;-10
2021/10/29 14:46:31;;;;;;;2.35;1.95;;;20.80;44.40;;;;;;1861575;77;21120;-10
2021/10/29 14:49:03;;;;;;;2.00;1.80;;;20.90;44.10;;;;;;1860266;77;21132;-10
2021/10/29 15:05:01;;;;;;;2.67;2.08;;;20.90;43.90;;;;;;1862584;77;21483;-10
2021/10/29 15:14:47;;;;;;;1.60;1.50;;;20.90;44.00;;;;;;1858689;77;21067;-10
2021/10/29 15:30:06;;;;;;;2.30;2.10;;;20.90;43.60;;;;;;1823477;77;21107;-10
2021/10/29 15:45:35;;;;;;;2.10;1.90;;;20.80;43.40;;;;;;1862489;77;21058;-10
2021/10/29 15:50:36;;;;;;;2.20;2.00;;;20.80;43.30;;;;;;1862699;77;21079;-9
2021/10/29 15:53:07;;;;;;;2.10;1.90;;;20.70;43.30;;;;;;1862628;77;21622;-9
2021/10/29 15:55:41;;;;;;;2.08;1.80;;;20.70;43.20;;;;;;1862656;77;21071;-9
2021/10/29 15:58:17;;;;;;;2.30;2.10;;;20.70;43.20;;;;;;1861885;77;21063;-9
2021/10/29 16:01:02;;;;;;;2.00;1.90;;;20.80;43.20;;;;;;1861104;77;21067;-9
2021/10/29 16:03:33;;;;;;;2.33;2.10;;;20.70;43.10;;;;;;1859945;77;21483;-11
2021/10/29 16:17:07;;;;;;;2.05;1.90;;;20.60;43.30;;;;;;1862547;77;21133;-9
2021/10/29 16:19:29;;;;;;;2.05;1.85;;;20.60;43.40;;;;;;1860905;77;21059;-10
2021/10/29 16:21:59;;;;;;;2.40;2.20;;;20.60;43.40;;;;;;1862613;76;21055;-10
2021/10/29 16:24:27;;;;;;;2.08;1.87;;;20.60;43.40;;;;;;1862653;77;21071;-10
2021/10/29 16:26:55;;;;;;;1.95;1.80;;;20.60;43.30;;;;;;1862578;77;21510;-10
2021/10/29 16:29:25;;;;;;;2.17;1.95;;;20.60;43.30;;;;;;1862566;77;21106;-10
2021/10/29 16:31:55;;;;;;;2.22;2.00;;;20.70;43.30;;;;;;1862377;77;21120;-10
2021/10/29 16:34:22;;;;;;;2.05;1.85;;;20.60;43.30;;;;;;1862282;76;21086;-10
2021/10/29 16:36:49;;;;;;;2.40;2.20;;;20.60;43.30;;;;;;1862576;77;21062;-10
2021/10/29 16:39:17;;;;;;;1.90;1.80;;;20.60;43.30;;;;;;1862618;77;21531;-10
2021/10/29 16:41:44;;;;;;;2.05;1.85;;;20.60;43.40;;;;;;1862567;77;21039;-10
2021/10/29 16:44:11;;;;;;;2.00;1.87;;;20.60;43.40;;;;;;1862540;77;21595;-10
2021/10/29 16:46:39;;;;;;;2.30;2.10;;;20.60;43.40;;;;;;1862576;77;21066;-10
2021/10/29 16:49:07;;;;;;;2.40;2.20;;;20.60;43.40;;;;;;1862549;77;21098;-10
2021/10/29 16:51:35;;;;;;;2.30;2.10;;;20.60;43.40;;;;;;1862583;77;21496;-10
2021/10/29 16:54:02;;;;;;;2.40;2.20;;;20.60;43.40;;;;;;1862532;77;21130;-10
2021/10/29 16:56:30;;;;;;;2.10;1.90;;;20.60;43.40;;;;;;1862540;77;21113;-10
2021/10/29 16:58:57;;;;;;;2.40;2.10;;;20.60;43.60;;;;;;1862549;77;21499;-10
2021/10/29 17:01:25;;;;;;;2.42;2.20;;;20.60;43.70;;;;;;1862509;77;21569;-10
2021/10/29 17:03:52;;;;;;;2.60;2.10;;;20.60;43.70;;;;;;1862630;77;21173;-10
2021/10/29 17:06:20;;;;;;;2.35;2.05;;;20.60;43.70;;;;;;1862558;77;21448;-10
2021/10/29 17:08:47;;;;;;;2.20;2.00;;;20.60;43.70;;;;;;1862601;77;21055;-10
2021/10/29 17:11:15;;;;;;;2.02;1.90;;;20.60;43.70;;;;;;1862610;77;21518;-10
2021/10/29 17:13:42;;;;;;;1.85;1.72;;;20.60;43.60;;;;;;1862549;77;21087;-10
2021/10/29 17:16:10;;;;;;;2.12;1.92;;;20.60;43.70;;;;;;1862510;77;21050;-10
2021/10/29 17:18:37;;;;;;;1.80;1.70;;;20.60;43.80;;;;;;1862628;77;21082;-10
2021/10/29 17:21:06;;;;;;;2.20;2.00;;;20.60;43.80;;;;;;1862565;77;21060;-10
2021/10/29 17:23:34;;;;;;;2.33;2.12;;;20.60;43.90;;;;;;1862492;76;21114;-10
2021/10/29 17:26:01;;;;;;;2.12;1.90;;;20.50;44.00;;;;;;1862569;77;21129;-10
2021/10/29 17:28:29;;;;;;;2.98;1.98;;;20.60;44.20;;;;;;1862571;77;21507;-10
2021/10/29 17:30:56;;;;;;;2.40;2.20;;;20.60;44.30;;;;;;1862607;77;21539;-10
2021/10/29 17:33:23;;;;;;;2.05;1.90;;;20.60;44.40;;;;;;1861454;76;21047;-10
2021/10/29 17:35:51;;;;;;;2.00;1.90;;;20.50;44.40;;;;;;1850280;77;21063;-10
2021/10/29 17:38:19;;;;;;;2.00;1.90;;;20.50;44.40;;;;;;1850347;77;21062;-10
2021/10/29 17:40:46;;;;;;;2.15;1.98;;;20.50;44.40;;;;;;1850259;77;21067;-10
2021/10/29 17:43:14;;;;;;;2.20;2.00;;;20.50;44.40;;;;;;1850273;77;21145;-10
2021/10/29 17:45:44;;;;;;;2.40;2.20;;;20.50;45.00;;;;;;1850297;77;21540;-10